sensor_id;sensor_type;location;lat;lon;timestamp;temperature;humidity
70826;SHT31;58446;41.490;22.098;2022-10-16T00:01:21;13.23;69.51
70826;SHT31;58446;41.490;22.098;2022-10-16T00:03:49;13.38;70.17
70826;SHT31;58446;41.490;22.098;2022-10-16T00:06:16;13.41;69.96
70826;SHT31;58446;41.490;22.098;2022-10-16T00:08:43;13.34;70.26
70826;SHT31;58446;41.490;22.098;2022-10-16T00:11:19;13.43;70.03
70826;SHT31;58446;41.490;22.098;2022-10-16T00:13:49;13.24;70.73
70826;SHT31;58446;41.490;22.098;2022-10-16T00:16:16;13.43;70.24
70826;SHT31;58446;41.490;22.098;2022-10-16T00:18:43;13.28;70.15
70826;SHT31;58446;41.490;22.098;2022-10-16T00:21:18;13.31;70.56
70826;SHT31;58446;41.490;22.098;2022-10-16T00:23:45;13.11;70.82
70826;SHT31;58446;41.490;22.098;2022-10-16T00:26:14;12.69;71.94
70826;SHT31;58446;41.490;22.098;2022-10-16T00:28:40;12.99;72.03
70826;SHT31;58446;41.490;22.098;2022-10-16T00:31:08;12.97;72.09
70826;SHT31;58446;41.490;22.098;2022-10-16T00:33:35;13.08;71.61
70826;SHT31;58446;41.490;22.098;2022-10-16T00:36:03;13.23;71.11
70826;SHT31;58446;41.490;22.098;2022-10-16T00:38:28;13.23;70.33
70826;SHT31;58446;41.490;22.098;2022-10-16T00:40:54;13.16;70.54
70826;SHT31;58446;41.490;22.098;2022-10-16T00:43:37;13.14;71.04
70826;SHT31;58446;41.490;22.098;2022-10-16T00:48:56;13.24;70.69
70826;SHT31;58446;41.490;22.098;2022-10-16T00:51:28;13.27;70.55
70826;SHT31;58446;41.490;22.098;2022-10-16T00:53:56;13.46;69.90
70826;SHT31;58446;41.490;22.098;2022-10-16T00:56:23;13.51;69.62
70826;SHT31;58446;41.490;22.098;2022-10-16T00:58:54;13.41;69.55
70826;SHT31;58446;41.490;22.098;2022-10-16T01:01:20;13.28;69.31
70826;SHT31;58446;41.490;22.098;2022-10-16T01:03:53;13.26;69.56
70826;SHT31;58446;41.490;22.098;2022-10-16T01:06:46;13.17;69.02
70826;SHT31;58446;41.490;22.098;2022-10-16T01:09:20;13.08;69.58
70826;SHT31;58446;41.490;22.098;2022-10-16T01:12:14;13.13;69.46
70826;SHT31;58446;41.490;22.098;2022-10-16T01:17:12;12.97;69.30
70826;SHT31;58446;41.490;22.098;2022-10-16T01:20:00;12.96;69.41
70826;SHT31;58446;41.490;22.098;2022-10-16T01:22:44;12.87;69.95
70826;SHT31;58446;41.490;22.098;2022-10-16T01:25:25;12.96;70.00
70826;SHT31;58446;41.490;22.098;2022-10-16T01:27:55;12.93;69.77
70826;SHT31;58446;41.490;22.098;2022-10-16T01:30:26;12.96;69.46
70826;SHT31;58446;41.490;22.098;2022-10-16T01:33:28;12.79;69.71
70826;SHT31;58446;41.490;22.098;2022-10-16T01:35:59;12.58;70.18
70826;SHT31;58446;41.490;22.098;2022-10-16T01:38:34;12.35;70.49
70826;SHT31;58446;41.490;22.098;2022-10-16T01:41:09;12.31;69.87
70826;SHT31;58446;41.490;22.098;2022-10-16T01:44:06;12.18;72.19
70826;SHT31;58446;41.490;22.098;2022-10-16T01:46:36;12.25;71.86
70826;SHT31;58446;41.490;22.098;2022-10-16T01:49:02;12.50;71.39
70826;SHT31;58446;41.490;22.098;2022-10-16T01:51:29;12.60;70.83
70826;SHT31;58446;41.490;22.098;2022-10-16T01:53:57;12.62;70.58
70826;SHT31;58446;41.490;22.098;2022-10-16T01:56:24;12.59;70.68
70826;SHT31;58446;41.490;22.098;2022-10-16T01:59:09;12.60;70.68
70826;SHT31;58446;41.490;22.098;2022-10-16T02:01:39;12.63;70.64
70826;SHT31;58446;41.490;22.098;2022-10-16T02:04:15;12.62;70.21
70826;SHT31;58446;41.490;22.098;2022-10-16T02:06:41;12.59;70.28
70826;SHT31;58446;41.490;22.098;2022-10-16T02:09:07;12.53;70.34
70826;SHT31;58446;41.490;22.098;2022-10-16T02:11:33;12.70;70.29
70826;SHT31;58446;41.490;22.098;2022-10-16T02:14:02;12.76;69.93
70826;SHT31;58446;41.490;22.098;2022-10-16T02:16:43;12.70;69.65
70826;SHT31;58446;41.490;22.098;2022-10-16T02:19:11;12.65;69.85
70826;SHT31;58446;41.490;22.098;2022-10-16T02:24:36;12.56;70.23
70826;SHT31;58446;41.490;22.098;2022-10-16T02:30:09;12.65;69.60
70826;SHT31;58446;41.490;22.098;2022-10-16T02:32:41;12.66;69.82
70826;SHT31;58446;41.490;22.098;2022-10-16T02:35:08;12.63;69.78
70826;SHT31;58446;41.490;22.098;2022-10-16T02:37:35;12.56;70.07
70826;SHT31;58446;41.490;22.098;2022-10-16T02:40:02;12.56;69.19
70826;SHT31;58446;41.490;22.098;2022-10-16T02:42:35;12.49;68.90
70826;SHT31;58446;41.490;22.098;2022-10-16T02:45:01;12.49;69.78
70826;SHT31;58446;41.490;22.098;2022-10-16T02:47:26;12.50;69.69
70826;SHT31;58446;41.490;22.098;2022-10-16T02:49:52;12.39;70.11
70826;SHT31;58446;41.490;22.098;2022-10-16T02:52:18;12.60;69.50
70826;SHT31;58446;41.490;22.098;2022-10-16T02:54:44;12.56;69.21
70826;SHT31;58446;41.490;22.098;2022-10-16T02:57:09;12.48;69.35
70826;SHT31;58446;41.490;22.098;2022-10-16T02:59:35;12.46;69.21
70826;SHT31;58446;41.490;22.098;2022-10-16T03:02:01;12.39;68.72
70826;SHT31;58446;41.490;22.098;2022-10-16T03:04:26;12.31;69.34
70826;SHT31;58446;41.490;22.098;2022-10-16T03:06:52;12.39;69.00
70826;SHT31;58446;41.490;22.098;2022-10-16T03:09:18;12.27;68.94
70826;SHT31;58446;41.490;22.098;2022-10-16T03:11:43;12.18;69.32
70826;SHT31;58446;41.490;22.098;2022-10-16T03:14:09;12.14;69.66
70826;SHT31;58446;41.490;22.098;2022-10-16T03:16:34;12.17;69.45
70826;SHT31;58446;41.490;22.098;2022-10-16T03:19:00;11.84;69.68
70826;SHT31;58446;41.490;22.098;2022-10-16T03:21:26;11.73;69.75
70826;SHT31;58446;41.490;22.098;2022-10-16T03:23:52;11.74;70.72
70826;SHT31;58446;41.490;22.098;2022-10-16T03:26:17;11.67;70.81
70826;SHT31;58446;41.490;22.098;2022-10-16T03:28:43;11.69;70.84
70826;SHT31;58446;41.490;22.098;2022-10-16T03:31:08;11.86;70.74
70826;SHT31;58446;41.490;22.098;2022-10-16T03:33:34;11.73;70.37
70826;SHT31;58446;41.490;22.098;2022-10-16T03:36:00;11.83;70.72
70826;SHT31;58446;41.490;22.098;2022-10-16T03:38:25;11.78;70.94
70826;SHT31;58446;41.490;22.098;2022-10-16T03:40:51;11.84;70.59
70826;SHT31;58446;41.490;22.098;2022-10-16T03:43:16;11.87;70.10
70826;SHT31;58446;41.490;22.098;2022-10-16T03:45:42;11.91;70.50
70826;SHT31;58446;41.490;22.098;2022-10-16T03:48:08;11.86;70.58
70826;SHT31;58446;41.490;22.098;2022-10-16T03:50:33;11.99;70.02
70826;SHT31;58446;41.490;22.098;2022-10-16T03:52:59;12.07;69.65
70826;SHT31;58446;41.490;22.098;2022-10-16T03:55:25;11.99;69.16
70826;SHT31;58446;41.490;22.098;2022-10-16T03:57:50;12.05;69.21
70826;SHT31;58446;41.490;22.098;2022-10-16T04:00:16;11.98;69.32
70826;SHT31;58446;41.490;22.098;2022-10-16T04:02:42;12.04;69.25
70826;SHT31;58446;41.490;22.098;2022-10-16T04:05:08;11.93;69.34
70826;SHT31;58446;41.490;22.098;2022-10-16T04:07:34;11.84;69.62
70826;SHT31;58446;41.490;22.098;2022-10-16T04:10:00;12.01;69.47
70826;SHT31;58446;41.490;22.098;2022-10-16T04:12:26;11.97;69.26
70826;SHT31;58446;41.490;22.098;2022-10-16T04:14:52;11.90;69.34
70826;SHT31;58446;41.490;22.098;2022-10-16T04:17:18;11.83;69.66
70826;SHT31;58446;41.490;22.098;2022-10-16T04:19:43;11.86;69.73
70826;SHT31;58446;41.490;22.098;2022-10-16T04:22:09;11.95;69.61
70826;SHT31;58446;41.490;22.098;2022-10-16T04:24:35;11.94;69.70
70826;SHT31;58446;41.490;22.098;2022-10-16T04:27:00;11.95;69.74
70826;SHT31;58446;41.490;22.098;2022-10-16T04:29:29;11.87;69.82
70826;SHT31;58446;41.490;22.098;2022-10-16T04:31:55;11.90;69.97
70826;SHT31;58446;41.490;22.098;2022-10-16T04:34:20;11.87;69.56
70826;SHT31;58446;41.490;22.098;2022-10-16T04:36:49;11.84;69.74
70826;SHT31;58446;41.490;22.098;2022-10-16T04:39:15;11.93;69.60
70826;SHT31;58446;41.490;22.098;2022-10-16T04:41:41;11.86;69.34
70826;SHT31;58446;41.490;22.098;2022-10-16T04:44:07;11.90;69.00
70826;SHT31;58446;41.490;22.098;2022-10-16T04:46:33;11.93;68.85
70826;SHT31;58446;41.490;22.098;2022-10-16T04:48:59;11.83;68.81
70826;SHT31;58446;41.490;22.098;2022-10-16T04:51:25;11.80;69.08
70826;SHT31;58446;41.490;22.098;2022-10-16T04:53:51;11.84;68.40
70826;SHT31;58446;41.490;22.098;2022-10-16T04:56:17;11.47;68.64
70826;SHT31;58446;41.490;22.098;2022-10-16T04:58:43;11.55;69.38
70826;SHT31;58446;41.490;22.098;2022-10-16T05:01:08;11.57;69.43
70826;SHT31;58446;41.490;22.098;2022-10-16T05:03:34;11.67;69.12
70826;SHT31;58446;41.490;22.098;2022-10-16T05:06:00;11.76;68.74
70826;SHT31;58446;41.490;22.098;2022-10-16T05:08:25;11.73;68.75
70826;SHT31;58446;41.490;22.098;2022-10-16T05:10:51;11.87;68.46
70826;SHT31;58446;41.490;22.098;2022-10-16T05:13:17;11.80;68.31
70826;SHT31;58446;41.490;22.098;2022-10-16T05:15:47;11.76;68.37
70826;SHT31;58446;41.490;22.098;2022-10-16T05:18:13;11.87;67.91
70826;SHT31;58446;41.490;22.098;2022-10-16T05:20:39;11.93;67.50
70826;SHT31;58446;41.490;22.098;2022-10-16T05:23:04;11.88;67.64
70826;SHT31;58446;41.490;22.098;2022-10-16T05:25:30;11.95;67.11
70826;SHT31;58446;41.490;22.098;2022-10-16T05:27:56;11.36;67.80
70826;SHT31;58446;41.490;22.098;2022-10-16T05:30:21;11.01;69.29
70826;SHT31;58446;41.490;22.098;2022-10-16T05:32:48;11.49;69.61
70826;SHT31;58446;41.490;22.098;2022-10-16T05:35:15;11.91;68.29
70826;SHT31;58446;41.490;22.098;2022-10-16T05:37:42;12.86;65.31
70826;SHT31;58446;41.490;22.098;2022-10-16T05:40:09;13.55;63.03
70826;SHT31;58446;41.490;22.098;2022-10-16T05:42:34;14.50;60.22
70826;SHT31;58446;41.490;22.098;2022-10-16T05:45:00;14.92;58.81
70826;SHT31;58446;41.490;22.098;2022-10-16T05:47:26;15.31;57.64
70826;SHT31;58446;41.490;22.098;2022-10-16T05:49:52;15.80;56.15
70826;SHT31;58446;41.490;22.098;2022-10-16T05:52:18;16.00;55.92
70826;SHT31;58446;41.490;22.098;2022-10-16T05:54:44;15.98;56.20
70826;SHT31;58446;41.490;22.098;2022-10-16T05:57:09;16.49;54.98
70826;SHT31;58446;41.490;22.098;2022-10-16T05:59:35;16.85;53.85
70826;SHT31;58446;41.490;22.098;2022-10-16T06:02:01;17.12;53.30
70826;SHT31;58446;41.490;22.098;2022-10-16T06:04:26;17.79;51.56
70826;SHT31;58446;41.490;22.098;2022-10-16T06:06:52;17.74;52.00
70826;SHT31;58446;41.490;22.098;2022-10-16T06:09:17;17.46;53.06
70826;SHT31;58446;41.490;22.098;2022-10-16T06:11:43;17.38;53.37
70826;SHT31;58446;41.490;22.098;2022-10-16T06:14:09;17.51;53.09
70826;SHT31;58446;41.490;22.098;2022-10-16T06:16:35;17.31;53.47
70826;SHT31;58446;41.490;22.098;2022-10-16T06:19:02;16.90;55.36
70826;SHT31;58446;41.490;22.098;2022-10-16T06:21:31;16.61;56.10
70826;SHT31;58446;41.490;22.098;2022-10-16T06:23:57;16.37;57.35
70826;SHT31;58446;41.490;22.098;2022-10-16T06:26:26;16.16;58.52
70826;SHT31;58446;41.490;22.098;2022-10-16T06:28:54;16.34;58.34
70826;SHT31;58446;41.490;22.098;2022-10-16T06:31:20;16.20;58.33
70826;SHT31;58446;41.490;22.098;2022-10-16T06:33:50;16.10;59.64
70826;SHT31;58446;41.490;22.098;2022-10-16T06:36:17;16.07;60.24
70826;SHT31;58446;41.490;22.098;2022-10-16T06:38:43;16.31;59.24
70826;SHT31;58446;41.490;22.098;2022-10-16T06:41:16;16.54;59.61
70826;SHT31;58446;41.490;22.098;2022-10-16T06:43:42;16.72;59.28
70826;SHT31;58446;41.490;22.098;2022-10-16T06:46:11;16.65;59.41
70826;SHT31;58446;41.490;22.098;2022-10-16T06:48:37;16.62;59.74
70826;SHT31;58446;41.490;22.098;2022-10-16T06:51:06;16.51;60.70
70826;SHT31;58446;41.490;22.098;2022-10-16T06:53:33;16.51;60.79
70826;SHT31;58446;41.490;22.098;2022-10-16T06:58:41;16.78;59.50
70826;SHT31;58446;41.490;22.098;2022-10-16T07:01:07;16.86;60.49
70826;SHT31;58446;41.490;22.098;2022-10-16T07:03:36;17.20;59.11
70826;SHT31;58446;41.490;22.098;2022-10-16T07:06:03;17.02;59.02
70826;SHT31;58446;41.490;22.098;2022-10-16T07:08:39;17.17;59.68
70826;SHT31;58446;41.490;22.098;2022-10-16T07:11:07;17.34;59.79
70826;SHT31;58446;41.490;22.098;2022-10-16T07:13:34;17.46;59.72
70826;SHT31;58446;41.490;22.098;2022-10-16T07:18:33;17.97;59.00
70826;SHT31;58446;41.490;22.098;2022-10-16T07:21:06;17.75;58.41
70826;SHT31;58446;41.490;22.098;2022-10-16T07:23:32;17.78;59.91
70826;SHT31;58446;41.490;22.098;2022-10-16T07:25:58;17.95;59.32
70826;SHT31;58446;41.490;22.098;2022-10-16T07:28:24;18.01;59.77
70826;SHT31;58446;41.490;22.098;2022-10-16T07:30:49;18.28;58.84
70826;SHT31;58446;41.490;22.098;2022-10-16T07:33:15;18.25;59.27
70826;SHT31;58446;41.490;22.098;2022-10-16T07:35:48;18.55;58.03
70826;SHT31;58446;41.490;22.098;2022-10-16T07:38:14;18.40;55.50
70826;SHT31;58446;41.490;22.098;2022-10-16T07:40:40;18.70;56.76
70826;SHT31;58446;41.490;22.098;2022-10-16T07:43:05;18.96;55.75
70826;SHT31;58446;41.490;22.098;2022-10-16T07:45:31;18.70;57.37
70826;SHT31;58446;41.490;22.098;2022-10-16T07:47:56;18.83;56.06
70826;SHT31;58446;41.490;22.098;2022-10-16T07:50:22;18.81;56.76
70826;SHT31;58446;41.490;22.098;2022-10-16T07:52:48;18.83;56.49
70826;SHT31;58446;41.490;22.098;2022-10-16T07:55:13;18.66;56.53
70826;SHT31;58446;41.490;22.098;2022-10-16T07:57:39;18.26;57.82
70826;SHT31;58446;41.490;22.098;2022-10-16T08:00:05;18.40;57.55
70826;SHT31;58446;41.490;22.098;2022-10-16T08:02:31;18.36;57.69
70826;SHT31;58446;41.490;22.098;2022-10-16T08:04:57;18.35;58.59
70826;SHT31;58446;41.490;22.098;2022-10-16T08:07:23;18.91;58.06
70826;SHT31;58446;41.490;22.098;2022-10-16T08:09:49;18.90;57.64
70826;SHT31;58446;41.490;22.098;2022-10-16T08:12:16;19.01;56.66
70826;SHT31;58446;41.490;22.098;2022-10-16T08:14:42;19.19;57.30
70826;SHT31;58446;41.490;22.098;2022-10-16T08:17:07;19.10;55.94
70826;SHT31;58446;41.490;22.098;2022-10-16T08:19:33;18.96;57.18
70826;SHT31;58446;41.490;22.098;2022-10-16T08:22:00;19.27;57.68
70826;SHT31;58446;41.490;22.098;2022-10-16T08:24:26;19.38;56.13
70826;SHT31;58446;41.490;22.098;2022-10-16T08:26:53;19.31;55.33
70826;SHT31;58446;41.490;22.098;2022-10-16T08:29:19;18.84;56.77
70826;SHT31;58446;41.490;22.098;2022-10-16T08:31:45;18.93;57.63
70826;SHT31;58446;41.490;22.098;2022-10-16T08:34:11;19.01;57.01
70826;SHT31;58446;41.490;22.098;2022-10-16T08:36:36;18.69;57.37
70826;SHT31;58446;41.490;22.098;2022-10-16T08:39:03;19.14;57.49
70826;SHT31;58446;41.490;22.098;2022-10-16T08:47:26;19.75;54.25
70826;SHT31;58446;41.490;22.098;2022-10-16T08:50:09;19.79;56.10
70826;SHT31;58446;41.490;22.098;2022-10-16T08:52:39;19.99;55.92
70826;SHT31;58446;41.490;22.098;2022-10-16T08:55:05;20.14;54.76
70826;SHT31;58446;41.490;22.098;2022-10-16T08:57:31;20.09;53.35
70826;SHT31;58446;41.490;22.098;2022-10-16T09:00:00;20.00;54.79
70826;SHT31;58446;41.490;22.098;2022-10-16T09:02:37;19.99;53.42
70826;SHT31;58446;41.490;22.098;2022-10-16T09:05:38;20.12;53.85
70826;SHT31;58446;41.490;22.098;2022-10-16T09:08:17;20.06;53.06
70826;SHT31;58446;41.490;22.098;2022-10-16T09:11:12;20.05;53.21
70826;SHT31;58446;41.490;22.098;2022-10-16T09:13:48;19.87;53.99
70826;SHT31;58446;41.490;22.098;2022-10-16T09:16:28;20.09;52.92
70826;SHT31;58446;41.490;22.098;2022-10-16T09:21:33;20.36;52.87
70826;SHT31;58446;41.490;22.098;2022-10-16T09:24:15;20.58;52.51
70826;SHT31;58446;41.490;22.098;2022-10-16T09:26:42;20.33;51.72
70826;SHT31;58446;41.490;22.098;2022-10-16T09:29:15;19.92;53.96
70826;SHT31;58446;41.490;22.098;2022-10-16T09:31:42;20.07;53.72
70826;SHT31;58446;41.490;22.098;2022-10-16T09:34:34;20.05;52.95
70826;SHT31;58446;41.490;22.098;2022-10-16T09:37:04;20.37;52.85
70826;SHT31;58446;41.490;22.098;2022-10-16T09:39:30;20.10;53.70
70826;SHT31;58446;41.490;22.098;2022-10-16T09:42:13;20.36;53.94
70826;SHT31;58446;41.490;22.098;2022-10-16T09:44:39;20.69;52.97
70826;SHT31;58446;41.490;22.098;2022-10-16T09:47:15;20.50;51.37
70826;SHT31;58446;41.490;22.098;2022-10-16T09:50:05;20.54;52.88
70826;SHT31;58446;41.490;22.098;2022-10-16T09:52:32;20.57;51.75
70826;SHT31;58446;41.490;22.098;2022-10-16T09:55:12;20.61;51.48
70826;SHT31;58446;41.490;22.098;2022-10-16T09:57:51;20.87;52.08
70826;SHT31;58446;41.490;22.098;2022-10-16T10:00:17;21.02;51.83
70826;SHT31;58446;41.490;22.098;2022-10-16T10:02:44;21.16;50.98
70826;SHT31;58446;41.490;22.098;2022-10-16T10:05:25;21.13;49.70
70826;SHT31;58446;41.490;22.098;2022-10-16T10:08:00;21.00;52.19
70826;SHT31;58446;41.490;22.098;2022-10-16T10:10:29;20.40;52.11
70826;SHT31;58446;41.490;22.098;2022-10-16T10:12:56;20.43;51.31
70826;SHT31;58446;41.490;22.098;2022-10-16T10:15:22;20.00;51.94
70826;SHT31;58446;41.490;22.098;2022-10-16T10:17:57;20.12;52.54
70826;SHT31;58446;41.490;22.098;2022-10-16T10:20:33;20.29;52.54
70826;SHT31;58446;41.490;22.098;2022-10-16T10:23:00;20.13;51.84
70826;SHT31;58446;41.490;22.098;2022-10-16T10:25:53;19.49;52.72
70826;SHT31;58446;41.490;22.098;2022-10-16T10:28:50;19.87;53.78
70826;SHT31;58446;41.490;22.098;2022-10-16T10:34:26;20.67;51.92
70826;SHT31;58446;41.490;22.098;2022-10-16T10:37:15;20.88;51.92
70826;SHT31;58446;41.490;22.098;2022-10-16T10:40:00;20.92;52.04
70826;SHT31;58446;41.490;22.098;2022-10-16T10:42:43;20.96;52.16
70826;SHT31;58446;41.490;22.098;2022-10-16T10:45:27;21.18;51.04
70826;SHT31;58446;41.490;22.098;2022-10-16T10:50:49;21.45;49.95
70826;SHT31;58446;41.490;22.098;2022-10-16T10:56:00;21.49;48.37
70826;SHT31;58446;41.490;22.098;2022-10-16T11:01:16;21.13;49.16
70826;SHT31;58446;41.490;22.098;2022-10-16T11:04:19;21.13;50.37
70826;SHT31;58446;41.490;22.098;2022-10-16T11:09:41;21.19;48.50
70826;SHT31;58446;41.490;22.098;2022-10-16T11:12:20;21.19;48.20
70826;SHT31;58446;41.490;22.098;2022-10-16T11:17:45;21.33;48.99
70826;SHT31;58446;41.490;22.098;2022-10-16T11:22:51;21.76;47.67
70826;SHT31;58446;41.490;22.098;2022-10-16T11:25:27;21.76;47.00
70826;SHT31;58446;41.490;22.098;2022-10-16T11:28:24;21.69;45.75
70826;SHT31;58446;41.490;22.098;2022-10-16T11:31:04;21.83;47.43
70826;SHT31;58446;41.490;22.098;2022-10-16T11:33:39;21.86;47.30
70826;SHT31;58446;41.490;22.098;2022-10-16T11:41:49;21.98;43.97
70826;SHT31;58446;41.490;22.098;2022-10-16T11:49:32;21.22;46.13
70826;SHT31;58446;41.490;22.098;2022-10-16T11:52:19;21.49;47.04
70826;SHT31;58446;41.490;22.098;2022-10-16T11:54:53;21.63;45.77
70826;SHT31;58446;41.490;22.098;2022-10-16T11:57:47;21.83;44.58
70826;SHT31;58446;41.490;22.098;2022-10-16T12:00:28;21.80;44.89
70826;SHT31;58446;41.490;22.098;2022-10-16T12:03:05;21.86;45.67
70826;SHT31;58446;41.490;22.098;2022-10-16T12:08:39;21.78;45.72
70826;SHT31;58446;41.490;22.098;2022-10-16T12:11:32;21.64;45.54
70826;SHT31;58446;41.490;22.098;2022-10-16T12:14:05;21.46;46.70
70826;SHT31;58446;41.490;22.098;2022-10-16T12:16:32;21.22;46.20
70826;SHT31;58446;41.490;22.098;2022-10-16T12:19:15;21.38;46.86
70826;SHT31;58446;41.490;22.098;2022-10-16T12:21:43;21.51;47.09
70826;SHT31;58446;41.490;22.098;2022-10-16T12:24:37;21.16;46.20
70826;SHT31;58446;41.490;22.098;2022-10-16T12:27:06;21.20;47.71
70826;SHT31;58446;41.490;22.098;2022-10-16T12:29:40;21.16;49.04
70826;SHT31;58446;41.490;22.098;2022-10-16T12:34:54;21.51;47.36
70826;SHT31;58446;41.490;22.098;2022-10-16T12:37:31;21.61;46.62
70826;SHT31;58446;41.490;22.098;2022-10-16T12:39:59;21.54;46.33
70826;SHT31;58446;41.490;22.098;2022-10-16T12:44:55;21.57;46.43
70826;SHT31;58446;41.490;22.098;2022-10-16T12:47:37;21.74;46.46
70826;SHT31;58446;41.490;22.098;2022-10-16T12:50:03;21.93;45.05
70826;SHT31;58446;41.490;22.098;2022-10-16T12:52:37;21.96;44.56
70826;SHT31;58446;41.490;22.098;2022-10-16T12:55:05;22.01;45.40
70826;SHT31;58446;41.490;22.098;2022-10-16T13:08:35;22.34;44.80
70826;SHT31;58446;41.490;22.098;2022-10-16T13:28:03;21.98;45.13
70826;SHT31;58446;41.490;22.098;2022-10-16T13:30:41;22.04;44.74
70826;SHT31;58446;41.490;22.098;2022-10-16T13:33:17;22.12;44.65
70826;SHT31;58446;41.490;22.098;2022-10-16T13:35:53;22.04;45.58
70826;SHT31;58446;41.490;22.098;2022-10-16T13:38:21;22.00;46.10
70826;SHT31;58446;41.490;22.098;2022-10-16T13:40:53;22.18;44.95
70826;SHT31;58446;41.490;22.098;2022-10-16T13:43:22;22.17;45.78
70826;SHT31;58446;41.490;22.098;2022-10-16T13:46:06;22.15;45.76
70826;SHT31;58446;41.490;22.098;2022-10-16T13:48:33;22.09;45.58
70826;SHT31;58446;41.490;22.098;2022-10-16T13:51:00;22.00;46.30
70826;SHT31;58446;41.490;22.098;2022-10-16T13:53:27;22.15;46.78
70826;SHT31;58446;41.490;22.098;2022-10-16T13:55:56;22.15;45.98
70826;SHT31;58446;41.490;22.098;2022-10-16T13:58:22;22.19;45.83
70826;SHT31;58446;41.490;22.098;2022-10-16T14:00:56;22.27;45.30
70826;SHT31;58446;41.490;22.098;2022-10-16T14:03:22;22.31;45.00
70826;SHT31;58446;41.490;22.098;2022-10-16T14:05:50;22.28;45.17
70826;SHT31;58446;41.490;22.098;2022-10-16T14:08:17;22.29;45.69
70826;SHT31;58446;41.490;22.098;2022-10-16T14:10:48;22.32;45.33
70826;SHT31;58446;41.490;22.098;2022-10-16T14:13:18;22.22;46.31
70826;SHT31;58446;41.490;22.098;2022-10-16T14:15:47;22.21;46.53
70826;SHT31;58446;41.490;22.098;2022-10-16T14:18:22;22.18;46.52
70826;SHT31;58446;41.490;22.098;2022-10-16T14:20:49;22.09;46.74
70826;SHT31;58446;41.490;22.098;2022-10-16T14:23:22;22.12;46.32
70826;SHT31;58446;41.490;22.098;2022-10-16T14:25:48;22.04;46.59
70826;SHT31;58446;41.490;22.098;2022-10-16T14:28:22;21.98;46.75
70826;SHT31;58446;41.490;22.098;2022-10-16T14:30:57;21.94;46.09
70826;SHT31;58446;41.490;22.098;2022-10-16T14:36:14;21.91;46.54
70826;SHT31;58446;41.490;22.098;2022-10-16T14:39:06;21.93;46.46
70826;SHT31;58446;41.490;22.098;2022-10-16T14:41:52;21.96;46.29
70826;SHT31;58446;41.490;22.098;2022-10-16T14:44:22;21.96;45.53
70826;SHT31;58446;41.490;22.098;2022-10-16T14:46:51;21.96;46.32
70826;SHT31;58446;41.490;22.098;2022-10-16T14:49:19;21.86;47.01
70826;SHT31;58446;41.490;22.098;2022-10-16T14:51:46;21.83;47.06
70826;SHT31;58446;41.490;22.098;2022-10-16T14:54:13;21.83;46.87
70826;SHT31;58446;41.490;22.098;2022-10-16T15:01:44;21.84;46.06
70826;SHT31;58446;41.490;22.098;2022-10-16T15:04:11;21.77;46.33
70826;SHT31;58446;41.490;22.098;2022-10-16T15:06:37;21.73;47.01
70826;SHT31;58446;41.490;22.098;2022-10-16T15:09:03;21.69;47.79
70826;SHT31;58446;41.490;22.098;2022-10-16T15:11:31;21.57;48.62
70826;SHT31;58446;41.490;22.098;2022-10-16T15:13:57;21.49;48.63
70826;SHT31;58446;41.490;22.098;2022-10-16T15:16:23;21.46;48.63
70826;SHT31;58446;41.490;22.098;2022-10-16T15:18:49;21.43;49.31
70826;SHT31;58446;41.490;22.098;2022-10-16T15:21:28;21.39;48.96
70826;SHT31;58446;41.490;22.098;2022-10-16T15:23:54;21.39;48.57
70826;SHT31;58446;41.490;22.098;2022-10-16T15:26:22;21.29;48.57
70826;SHT31;58446;41.490;22.098;2022-10-16T15:28:48;21.22;48.40
70826;SHT31;58446;41.490;22.098;2022-10-16T15:31:13;21.16;48.58
70826;SHT31;58446;41.490;22.098;2022-10-16T15:33:39;21.08;48.72
70826;SHT31;58446;41.490;22.098;2022-10-16T15:36:05;21.02;49.10
70826;SHT31;58446;41.490;22.098;2022-10-16T15:38:31;20.94;49.22
70826;SHT31;58446;41.490;22.098;2022-10-16T15:40:57;20.84;49.68
70826;SHT31;58446;41.490;22.098;2022-10-16T15:43:22;20.75;50.45
70826;SHT31;58446;41.490;22.098;2022-10-16T15:46:06;20.61;51.62
70826;SHT31;58446;41.490;22.098;2022-10-16T15:48:34;20.51;52.12
70826;SHT31;58446;41.490;22.098;2022-10-16T15:51:00;20.36;54.86
70826;SHT31;58446;41.490;22.098;2022-10-16T15:53:26;20.21;55.69
70826;SHT31;58446;41.490;22.098;2022-10-16T15:55:51;20.09;56.56
70826;SHT31;58446;41.490;22.098;2022-10-16T15:58:17;19.94;57.40
70826;SHT31;58446;41.490;22.098;2022-10-16T16:00:43;19.96;56.51
70826;SHT31;58446;41.490;22.098;2022-10-16T16:03:08;19.90;55.87
70826;SHT31;58446;41.490;22.098;2022-10-16T16:05:37;19.79;54.70
70826;SHT31;58446;41.490;22.098;2022-10-16T16:08:03;19.79;54.82
70826;SHT31;58446;41.490;22.098;2022-10-16T16:10:29;19.68;56.54
70826;SHT31;58446;41.490;22.098;2022-10-16T16:12:54;19.59;57.32
70826;SHT31;58446;41.490;22.098;2022-10-16T16:15:21;19.57;55.43
70826;SHT31;58446;41.490;22.098;2022-10-16T16:17:47;19.62;55.35
70826;SHT31;58446;41.490;22.098;2022-10-16T16:20:14;19.55;55.16
70826;SHT31;58446;41.490;22.098;2022-10-16T16:22:39;19.48;55.69
70826;SHT31;58446;41.490;22.098;2022-10-16T16:25:05;19.36;57.30
70826;SHT31;58446;41.490;22.098;2022-10-16T16:27:31;19.32;56.95
70826;SHT31;58446;41.490;22.098;2022-10-16T16:30:00;19.10;58.76
70826;SHT31;58446;41.490;22.098;2022-10-16T16:32:25;18.98;59.77
70826;SHT31;58446;41.490;22.098;2022-10-16T16:34:51;18.86;60.24
70826;SHT31;58446;41.490;22.098;2022-10-16T16:37:17;18.59;60.38
70826;SHT31;58446;41.490;22.098;2022-10-16T16:39:42;18.71;59.82
70826;SHT31;58446;41.490;22.098;2022-10-16T16:42:08;18.91;57.87
70826;SHT31;58446;41.490;22.098;2022-10-16T16:44:35;18.96;59.38
70826;SHT31;58446;41.490;22.098;2022-10-16T16:47:03;18.97;58.81
70826;SHT31;58446;41.490;22.098;2022-10-16T16:49:29;18.88;58.47
70826;SHT31;58446;41.490;22.098;2022-10-16T16:51:55;18.84;58.86
70826;SHT31;58446;41.490;22.098;2022-10-16T16:54:21;18.46;60.10
70826;SHT31;58446;41.490;22.098;2022-10-16T16:56:46;18.29;60.00
70826;SHT31;58446;41.490;22.098;2022-10-16T16:59:14;18.30;59.74
70826;SHT31;58446;41.490;22.098;2022-10-16T17:01:40;18.08;59.77
70826;SHT31;58446;41.490;22.098;2022-10-16T17:04:06;17.91;60.26
70826;SHT31;58446;41.490;22.098;2022-10-16T17:06:32;18.01;60.38
70826;SHT31;58446;41.490;22.098;2022-10-16T17:09:00;18.08;61.61
70826;SHT31;58446;41.490;22.098;2022-10-16T17:11:26;17.88;63.40